sensor_id;sensor_type;location;lat;lon;timestamp;pressure;altitude;pressure_sealevel;temperature;humidity
54882;BME280;40775;51.448;4.742;2023-01-30T00:01:28;101853.22;;;6.47;100.00
54882;BME280;40775;51.448;4.742;2023-01-30T00:03:55;101856.78;;;6.49;100.00
54882;BME280;40775;51.448;4.742;2023-01-30T00:06:23;101855.16;;;6.51;100.00
54882;BME280;40775;51.448;4.742;2023-01-30T00:08:50;101840.31;;;6.50;100.00
54882;BME280;40775;51.448;4.742;2023-01-30T00:11:18;101840.63;;;6.57;100.00
54882;BME280;40775;51.448;4.742;2023-01-30T00:13:48;101842.28;;;6.55;100.00
54882;BME280;40775;51.448;4.742;2023-01-30T00:16:16;101838.03;;;6.57;100.00
54882;BME280;40775;51.448;4.742;2023-01-30T00:18:43;101827.78;;;6.60;100.00
54882;BME280;40775;51.448;4.742;2023-01-30T00:21:12;101826.16;;;6.62;100.00
54882;BME280;40775;51.448;4.742;2023-01-30T00:23:40;101845.22;;;6.61;100.00
54882;BME280;40775;51.448;4.742;2023-01-30T00:26:08;101835.69;;;6.61;100.00
54882;BME280;40775;51.448;4.742;2023-01-30T00:28:36;101833.31;;;6.66;100.00
54882;BME280;40775;51.448;4.742;2023-01-30T00:31:04;101835.09;;;6.67;100.00
54882;BME280;40775;51.448;4.742;2023-01-30T00:33:31;101836.91;;;6.68;100.00
54882;BME280;40775;51.448;4.742;2023-01-30T00:36:00;101840.31;;;6.67;100.00
54882;BME280;40775;51.448;4.742;2023-01-30T00:38:27;101844.72;;;6.68;100.00
54882;BME280;40775;51.448;4.742;2023-01-30T00:40:54;101845.69;;;6.70;100.00
54882;BME280;40775;51.448;4.742;2023-01-30T00:43:21;101840.63;;;6.73;100.00
54882;BME280;40775;51.448;4.742;2023-01-30T00:46:29;101856.28;;;6.73;100.00
54882;BME280;40775;51.448;4.742;2023-01-30T00:49:17;101842.56;;;6.77;100.00
54882;BME280;40775;51.448;4.742;2023-01-30T00:51:45;101846.00;;;6.76;100.00
54882;BME280;40775;51.448;4.742;2023-01-30T00:54:12;101832.38;;;6.81;100.00
54882;BME280;40775;51.448;4.742;2023-01-30T00:56:39;101828.22;;;6.85;100.00
54882;BME280;40775;51.448;4.742;2023-01-30T00:59:06;101829.34;;;6.90;100.00
54882;BME280;40775;51.448;4.742;2023-01-30T01:01:33;101832.13;;;6.93;100.00
54882;BME280;40775;51.448;4.742;2023-01-30T01:04:00;101816.59;;;6.96;100.00
54882;BME280;40775;51.448;4.742;2023-01-30T01:06:27;101826.38;;;7.00;100.00
54882;BME280;40775;51.448;4.742;2023-01-30T01:08:54;101825.63;;;7.03;100.00
54882;BME280;40775;51.448;4.742;2023-01-30T01:11:21;101826.53;;;7.03;100.00
54882;BME280;40775;51.448;4.742;2023-01-30T01:13:54;101818.03;;;7.07;100.00
54882;BME280;40775;51.448;4.742;2023-01-30T01:16:23;101816.31;;;7.08;100.00
54882;BME280;40775;51.448;4.742;2023-01-30T01:18:50;101813.94;;;7.12;100.00
54882;BME280;40775;51.448;4.742;2023-01-30T01:21:18;101819.00;;;7.09;100.00
54882;BME280;40775;51.448;4.742;2023-01-30T01:23:55;101818.25;;;7.12;100.00
54882;BME280;40775;51.448;4.742;2023-01-30T01:26:23;101822.69;;;7.13;100.00
54882;BME280;40775;51.448;4.742;2023-01-30T01:28:57;101818.34;;;7.13;100.00
54882;BME280;40775;51.448;4.742;2023-01-30T01:31:24;101809.78;;;7.16;100.00
54882;BME280;40775;51.448;4.742;2023-01-30T01:33:51;101804.56;;;7.16;100.00
54882;BME280;40775;51.448;4.742;2023-01-30T01:36:18;101813.44;;;7.20;100.00
54882;BME280;40775;51.448;4.742;2023-01-30T01:39:05;101815.22;;;7.21;100.00
54882;BME280;40775;51.448;4.742;2023-01-30T01:41:32;101810.75;;;7.18;100.00
54882;BME280;40775;51.448;4.742;2023-01-30T01:44:04;101794.47;;;7.24;100.00
54882;BME280;40775;51.448;4.742;2023-01-30T01:46:57;101796.25;;;7.25;100.00
54882;BME280;40775;51.448;4.742;2023-01-30T01:49:32;101775.38;;;7.25;100.00
54882;BME280;40775;51.448;4.742;2023-01-30T01:52:07;101778.94;;;7.27;100.00
54882;BME280;40775;51.448;4.742;2023-01-30T01:55:09;101759.84;;;7.28;100.00
54882;BME280;40775;51.448;4.742;2023-01-30T01:57:49;101763.56;;;7.33;100.00
54882;BME280;40775;51.448;4.742;2023-01-30T02:00:20;101743.50;;;7.32;100.00
54882;BME280;40775;51.448;4.742;2023-01-30T02:03:19;101742.66;;;7.33;100.00
54882;BME280;40775;51.448;4.742;2023-01-30T02:05:50;101742.66;;;7.33;100.00
54882;BME280;40775;51.448;4.742;2023-01-30T02:08:32;101743.56;;;7.33;100.00
54882;BME280;40775;51.448;4.742;2023-01-30T02:11:49;101745.16;;;7.30;100.00
54882;BME280;40775;51.448;4.742;2023-01-30T02:14:20;101745.28;;;7.33;100.00
54882;BME280;40775;51.448;4.742;2023-01-30T02:16:47;101744.47;;;7.34;100.00
54882;BME280;40775;51.448;4.742;2023-01-30T02:19:49;101755.72;;;7.33;100.00
54882;BME280;40775;51.448;4.742;2023-01-30T02:32:23;101760.19;;;7.35;100.00
54882;BME280;40775;51.448;4.742;2023-01-30T02:35:16;101751.53;;;7.36;100.00
54882;BME280;40775;51.448;4.742;2023-01-30T02:38:15;101751.63;;;7.38;100.00
54882;BME280;40775;51.448;4.742;2023-01-30T02:41:00;101754.16;;;7.36;100.00
54882;BME280;40775;51.448;4.742;2023-01-30T02:43:38;101746.47;;;7.39;100.00
54882;BME280;40775;51.448;4.742;2023-01-30T02:46:25;101744.78;;;7.40;100.00
54882;BME280;40775;51.448;4.742;2023-01-30T02:49:08;101731.78;;;7.41;100.00
54882;BME280;40775;51.448;4.742;2023-01-30T02:51:39;101725.75;;;7.42;100.00
54882;BME280;40775;51.448;4.742;2023-01-30T02:54:11;101730.06;;;7.42;100.00
54882;BME280;40775;51.448;4.742;2023-01-30T02:56:55;101727.53;;;7.43;100.00
54882;BME280;40775;51.448;4.742;2023-01-30T02:59:36;101734.47;;;7.43;100.00
54882;BME280;40775;51.448;4.742;2023-01-30T03:05:26;101737.84;;;7.40;100.00
54882;BME280;40775;51.448;4.742;2023-01-30T03:08:26;101726.63;;;7.43;100.00
54882;BME280;40775;51.448;4.742;2023-01-30T03:11:03;101722.81;;;7.36;100.00
54882;BME280;40775;51.448;4.742;2023-01-30T03:16:39;101717.59;;;7.36;100.00
54882;BME280;40775;51.448;4.742;2023-01-30T03:19:11;101722.16;;;7.40;100.00
54882;BME280;40775;51.448;4.742;2023-01-30T03:21:43;101717.53;;;7.35;100.00
54882;BME280;40775;51.448;4.742;2023-01-30T03:24:12;101716.84;;;7.39;100.00
54882;BME280;40775;51.448;4.742;2023-01-30T03:27:01;101729.91;;;7.39;100.00
54882;BME280;40775;51.448;4.742;2023-01-30T03:29:29;101719.38;;;7.37;100.00
54882;BME280;40775;51.448;4.742;2023-01-30T03:31:57;101731.47;;;7.35;100.00
54882;BME280;40775;51.448;4.742;2023-01-30T03:34:24;101734.16;;;7.37;100.00
54882;BME280;40775;51.448;4.742;2023-01-30T03:36:51;101730.72;;;7.38;100.00
54882;BME280;40775;51.448;4.742;2023-01-30T03:39:18;101735.88;;;7.36;100.00
54882;BME280;40775;51.448;4.742;2023-01-30T03:41:46;101727.28;;;7.39;100.00
54882;BME280;40775;51.448;4.742;2023-01-30T03:44:13;101728.94;;;7.37;100.00
54882;BME280;40775;51.448;4.742;2023-01-30T03:46:40;101717.72;;;7.39;100.00
54882;BME280;40775;51.448;4.742;2023-01-30T03:49:07;101727.38;;;7.40;100.00
54882;BME280;40775;51.448;4.742;2023-01-30T03:51:34;101723.13;;;7.42;100.00
54882;BME280;40775;51.448;4.742;2023-01-30T03:54:01;101714.31;;;7.40;100.00
54882;BME280;40775;51.448;4.742;2023-01-30T03:56:27;101715.28;;;7.42;100.00
54882;BME280;40775;51.448;4.742;2023-01-30T03:58:55;101729.25;;;7.43;100.00
54882;BME280;40775;51.448;4.742;2023-01-30T04:01:22;101728.44;;;7.44;100.00
54882;BME280;40775;51.448;4.742;2023-01-30T04:03:49;101731.94;;;7.44;100.00
54882;BME280;40775;51.448;4.742;2023-01-30T04:06:16;101729.31;;;7.44;100.00
54882;BME280;40775;51.448;4.742;2023-01-30T04:08:43;101724.16;;;7.46;100.00
54882;BME280;40775;51.448;4.742;2023-01-30T04:11:10;101719.75;;;7.45;100.00
54882;BME280;40775;51.448;4.742;2023-01-30T04:13:37;101726.03;;;7.49;100.00
54882;BME280;40775;51.448;4.742;2023-01-30T04:16:25;101724.31;;;7.49;100.00
54882;BME280;40775;51.448;4.742;2023-01-30T04:18:52;101725.34;;;7.53;100.00
54882;BME280;40775;51.448;4.742;2023-01-30T04:21:19;101717.50;;;7.53;100.00
54882;BME280;40775;51.448;4.742;2023-01-30T04:23:47;101710.56;;;7.53;100.00
54882;BME280;40775;51.448;4.742;2023-01-30T04:26:14;101708.75;;;7.52;100.00
54882;BME280;40775;51.448;4.742;2023-01-30T04:28:41;101703.69;;;7.55;100.00
54882;BME280;40775;51.448;4.742;2023-01-30T04:31:10;101708.00;;;7.55;100.00
54882;BME280;40775;51.448;4.742;2023-01-30T04:33:38;101715.16;;;7.59;100.00
54882;BME280;40775;51.448;4.742;2023-01-30T04:36:07;101715.16;;;7.59;100.00
54882;BME280;40775;51.448;4.742;2023-01-30T04:38:35;101704.63;;;7.57;100.00
54882;BME280;40775;51.448;4.742;2023-01-30T04:41:03;101707.31;;;7.59;100.00
54882;BME280;40775;51.448;4.742;2023-01-30T04:43:31;101692.47;;;7.58;100.00
54882;BME280;40775;51.448;4.742;2023-01-30T04:45:58;101701.28;;;7.60;100.00
54882;BME280;40775;51.448;4.742;2023-01-30T04:48:25;101700.50;;;7.62;100.00
54882;BME280;40775;51.448;4.742;2023-01-30T04:50:54;101718.75;;;7.61;100.00
54882;BME280;40775;51.448;4.742;2023-01-30T04:53:22;101716.19;;;7.62;100.00
54882;BME280;40775;51.448;4.742;2023-01-30T04:55:58;101721.56;;;7.65;100.00
54882;BME280;40775;51.448;4.742;2023-01-30T04:58:25;101713.72;;;7.65;100.00
54882;BME280;40775;51.448;4.742;2023-01-30T05:00:53;101726.94;;;7.68;100.00
54882;BME280;40775;51.448;4.742;2023-01-30T05:03:20;101720.22;;;7.73;100.00
54882;BME280;40775;51.448;4.742;2023-01-30T05:05:47;101724.69;;;7.76;100.00
54882;BME280;40775;51.448;4.742;2023-01-30T05:08:15;101714.97;;;7.73;100.00
54882;BME280;40775;51.448;4.742;2023-01-30T05:10:42;101715.25;;;7.80;100.00
54882;BME280;40775;51.448;4.742;2023-01-30T05:13:09;101721.25;;;7.77;100.00
54882;BME280;40775;51.448;4.742;2023-01-30T05:15:38;101735.34;;;7.81;100.00
54882;BME280;40775;51.448;4.742;2023-01-30T05:18:05;101742.28;;;7.80;100.00
54882;BME280;40775;51.448;4.742;2023-01-30T05:20:32;101737.19;;;7.83;100.00
54882;BME280;40775;51.448;4.742;2023-01-30T05:22:59;101733.69;;;7.83;100.00
54882;BME280;40775;51.448;4.742;2023-01-30T05:25:26;101734.78;;;7.88;100.00
54882;BME280;40775;51.448;4.742;2023-01-30T05:27:53;101747.94;;;7.89;100.00
54882;BME280;40775;51.448;4.742;2023-01-30T05:30:20;101735.88;;;7.93;100.00
54882;BME280;40775;51.448;4.742;2023-01-30T05:32:47;101732.31;;;7.91;100.00
54882;BME280;40775;51.448;4.742;2023-01-30T05:35:14;101735.06;;;7.94;100.00
54882;BME280;40775;51.448;4.742;2023-01-30T05:37:42;101736.88;;;7.95;100.00
54882;BME280;40775;51.448;4.742;2023-01-30T05:40:13;101734.16;;;7.93;100.00
54882;BME280;40775;51.448;4.742;2023-01-30T05:42:40;101733.28;;;7.93;100.00
54882;BME280;40775;51.448;4.742;2023-01-30T05:45:08;101723.81;;;7.95;100.00
54882;BME280;40775;51.448;4.742;2023-01-30T05:47:35;101729.81;;;7.94;100.00
54882;BME280;40775;51.448;4.742;2023-01-30T05:50:02;101737.00;;;7.98;100.00
54882;BME280;40775;51.448;4.742;2023-01-30T05:52:29;101723.13;;;7.99;100.00
54882;BME280;40775;51.448;4.742;2023-01-30T05:54:56;101718.72;;;7.98;100.00
54882;BME280;40775;51.448;4.742;2023-01-30T05:57:23;101727.50;;;8.00;100.00
54882;BME280;40775;51.448;4.742;2023-01-30T05:59:50;101724.84;;;7.98;100.00
54882;BME280;40775;51.448;4.742;2023-01-30T06:02:17;101744.16;;;8.02;100.00
54882;BME280;40775;51.448;4.742;2023-01-30T06:04:44;101758.97;;;8.01;100.00
54882;BME280;40775;51.448;4.742;2023-01-30T06:07:13;101752.97;;;8.04;100.00
54882;BME280;40775;51.448;4.742;2023-01-30T06:09:40;101738.03;;;8.01;100.00
54882;BME280;40775;51.448;4.742;2023-01-30T06:12:08;101750.16;;;7.99;100.00
54882;BME280;40775;51.448;4.742;2023-01-30T06:14:35;101748.44;;;8.00;100.00
54882;BME280;40775;51.448;4.742;2023-01-30T06:17:02;101752.00;;;8.02;100.00
54882;BME280;40775;51.448;4.742;2023-01-30T06:19:29;101758.69;;;7.95;100.00
54882;BME280;40775;51.448;4.742;2023-01-30T06:21:56;101759.34;;;7.91;100.00
54882;BME280;40775;51.448;4.742;2023-01-30T06:24:23;101761.81;;;7.88;100.00
54882;BME280;40775;51.448;4.742;2023-01-30T06:26:50;101764.44;;;7.88;100.00
54882;BME280;40775;51.448;4.742;2023-01-30T06:29:17;101753.09;;;7.88;100.00
54882;BME280;40775;51.448;4.742;2023-01-30T06:31:44;101752.69;;;7.79;100.00
54882;BME280;40775;51.448;4.742;2023-01-30T06:34:11;101758.72;;;7.78;100.00
54882;BME280;40775;51.448;4.742;2023-01-30T06:36:38;101756.13;;;7.78;100.00
54882;BME280;40775;51.448;4.742;2023-01-30T06:39:05;101749.09;;;7.77;100.00
54882;BME280;40775;51.448;4.742;2023-01-30T06:41:32;101747.94;;;7.70;100.00
54882;BME280;40775;51.448;4.742;2023-01-30T06:43:59;101760.53;;;7.79;100.00
54882;BME280;40775;51.448;4.742;2023-01-30T06:46:27;101771.63;;;8.50;100.00
54882;BME280;40775;51.448;4.742;2023-01-30T06:48:54;101755.94;;;8.92;100.00
54882;BME280;40775;51.448;4.742;2023-01-30T06:51:21;101744.59;;;9.35;100.00
54882;BME280;40775;51.448;4.742;2023-01-30T06:53:48;101730.97;;;9.43;100.00
54882;BME280;40775;51.448;4.742;2023-01-30T06:56:18;101737.63;;;10.04;100.00
54882;BME280;40775;51.448;4.742;2023-01-30T06:58:45;101732.78;;;10.38;100.00
54882;BME280;40775;51.448;4.742;2023-01-30T07:01:12;101723.50;;;10.73;100.00
54882;BME280;40775;51.448;4.742;2023-01-30T07:03:40;101721.53;;;10.93;100.00
54882;BME280;40775;51.448;4.742;2023-01-30T07:06:07;101717.59;;;11.06;100.00
54882;BME280;40775;51.448;4.742;2023-01-30T07:08:34;101716.16;;;11.17;100.00
54882;BME280;40775;51.448;4.742;2023-01-30T07:11:03;101726.78;;;11.20;100.00
54882;BME280;40775;51.448;4.742;2023-01-30T07:13:31;101719.97;;;11.25;100.00
54882;BME280;40775;51.448;4.742;2023-01-30T07:15:58;101720.44;;;10.87;100.00
54882;BME280;40775;51.448;4.742;2023-01-30T07:18:25;101724.72;;;10.58;100.00
54882;BME280;40775;51.448;4.742;2023-01-30T07:20:52;101741.00;;;10.47;100.00
54882;BME280;40775;51.448;4.742;2023-01-30T07:23:19;101731.34;;;10.23;100.00
54882;BME280;40775;51.448;4.742;2023-01-30T07:25:46;101736.41;;;10.67;100.00
54882;BME280;40775;51.448;4.742;2023-01-30T07:28:13;101736.53;;;10.96;100.00
54882;BME280;40775;51.448;4.742;2023-01-30T07:30:40;101731.31;;;11.24;100.00
54882;BME280;40775;51.448;4.742;2023-01-30T07:33:07;101726.72;;;11.45;100.00
54882;BME280;40775;51.448;4.742;2023-01-30T07:35:36;101741.75;;;11.23;100.00
54882;BME280;40775;51.448;4.742;2023-01-30T07:38:04;101737.78;;;10.56;100.00
54882;BME280;40775;51.448;4.742;2023-01-30T07:40:31;101737.06;;;10.60;100.00
54882;BME280;40775;51.448;4.742;2023-01-30T07:43:05;101737.25;;;10.92;100.00
54882;BME280;40775;51.448;4.742;2023-01-30T07:45:39;101736.53;;;10.96;100.00
54882;BME280;40775;51.448;4.742;2023-01-30T07:48:08;101731.59;;;11.06;100.00
54882;BME280;40775;51.448;4.742;2023-01-30T07:50:36;101738.47;;;11.01;100.00
54882;BME280;40775;51.448;4.742;2023-01-30T07:53:09;101737.59;;;11.29;100.00
54882;BME280;40775;51.448;4.742;2023-01-30T07:55:37;101745.31;;;11.52;100.00
54882;BME280;40775;51.448;4.742;2023-01-30T07:58:04;101755.03;;;11.26;100.00
54882;BME280;40775;51.448;4.742;2023-01-30T08:00:31;101753.66;;;11.38;100.00
54882;BME280;40775;51.448;4.742;2023-01-30T08:02:59;101750.69;;;11.55;100.00
54882;BME280;40775;51.448;4.742;2023-01-30T08:05:26;101759.50;;;11.57;100.00
54882;BME280;40775;51.448;4.742;2023-01-30T08:07:55;101759.00;;;11.41;100.00
54882;BME280;40775;51.448;4.742;2023-01-30T08:10:22;101753.94;;;11.48;100.00
54882;BME280;40775;51.448;4.742;2023-01-30T08:12:50;101760.78;;;11.42;100.00
54882;BME280;40775;51.448;4.742;2023-01-30T08:15:17;101755.22;;;11.32;100.00
54882;BME280;40775;51.448;4.742;2023-01-30T08:17:55;101769.34;;;11.35;100.00
54882;BME280;40775;51.448;4.742;2023-01-30T08:20:24;101776.56;;;11.15;100.00
54882;BME280;40775;51.448;4.742;2023-01-30T08:22:52;101776.75;;;11.22;100.00
54882;BME280;40775;51.448;4.742;2023-01-30T08:25:20;101789.81;;;11.45;100.00
54882;BME280;40775;51.448;4.742;2023-01-30T08:27:47;101790.00;;;10.72;100.00
54882;BME280;40775;51.448;4.742;2023-01-30T08:30:15;101789.00;;;10.94;100.00
54882;BME280;40775;51.448;4.742;2023-01-30T08:32:42;101790.03;;;10.48;100.00
54882;BME280;40775;51.448;4.742;2023-01-30T08:35:10;101799.19;;;9.89;100.00
54882;BME280;40775;51.448;4.742;2023-01-30T08:37:39;101789.25;;;10.51;100.00
54882;BME280;40775;51.448;4.742;2023-01-30T08:40:07;101796.38;;;10.79;100.00
54882;BME280;40775;51.448;4.742;2023-01-30T08:42:35;101788.94;;;10.42;100.00
54882;BME280;40775;51.448;4.742;2023-01-30T08:45:03;101788.56;;;10.33;100.00
54882;BME280;40775;51.448;4.742;2023-01-30T08:47:30;101792.72;;;10.50;100.00
54882;BME280;40775;51.448;4.742;2023-01-30T08:49:58;101789.16;;;10.48;100.00
54882;BME280;40775;51.448;4.742;2023-01-30T08:52:25;101810.03;;;9.99;100.00
54882;BME280;40775;51.448;4.742;2023-01-30T08:54:52;101799.59;;;9.78;100.00
54882;BME280;40775;51.448;4.742;2023-01-30T08:57:19;101807.69;;;9.84;100.00
54882;BME280;40775;51.448;4.742;2023-01-30T08:59:46;101811.00;;;9.57;100.00
54882;BME280;40775;51.448;4.742;2023-01-30T09:02:13;101815.94;;;9.93;100.00
54882;BME280;40775;51.448;4.742;2023-01-30T09:04:40;101823.59;;;10.11;100.00
54882;BME280;40775;51.448;4.742;2023-01-30T09:07:07;101834.97;;;10.34;100.00
54882;BME280;40775;51.448;4.742;2023-01-30T09:09:34;101834.25;;;10.38;100.00
54882;BME280;40775;51.448;4.742;2023-01-30T09:12:03;101831.56;;;9.90;100.00
54882;BME280;40775;51.448;4.742;2023-01-30T09:14:30;101826.88;;;9.83;100.00
54882;BME280;40775;51.448;4.742;2023-01-30T09:16:57;101831.59;;;9.69;100.00
54882;BME280;40775;51.448;4.742;2023-01-30T09:19:26;101852.34;;;9.42;100.00
54882;BME280;40775;51.448;4.742;2023-01-30T09:21:54;101846.91;;;9.17;100.00
54882;BME280;40775;51.448;4.742;2023-01-30T09:24:22;101835.66;;;8.98;100.00
54882;BME280;40775;51.448;4.742;2023-01-30T09:26:56;101844.25;;;9.36;100.00
54882;BME280;40775;51.448;4.742;2023-01-30T09:29:26;101837.13;;;8.92;100.00
54882;BME280;40775;51.448;4.742;2023-01-30T09:31:54;101853.19;;;9.20;100.00
54882;BME280;40775;51.448;4.742;2023-01-30T09:34:25;101845.91;;;9.13;100.00
54882;BME280;40775;51.448;4.742;2023-01-30T09:36:58;101833.16;;;9.64;100.00
54882;BME280;40775;51.448;4.742;2023-01-30T09:39:27;101844.72;;;9.48;100.00
54882;BME280;40775;51.448;4.742;2023-01-30T09:45:35;101861.09;;;9.43;100.00
54882;BME280;40775;51.448;4.742;2023-01-30T09:51:30;101853.78;;;9.56;100.00
54882;BME280;40775;51.448;4.742;2023-01-30T09:54:19;101881.81;;;9.37;100.00
54882;BME280;40775;51.448;4.742;2023-01-30T09:57:10;101878.56;;;9.42;100.00
54882;BME280;40775;51.448;4.742;2023-01-30T10:00:05;101869.91;;;9.24;100.00
54882;BME280;40775;51.448;4.742;2023-01-30T10:03:04;101893.19;;;9.58;100.00
54882;BME280;40775;51.448;4.742;2023-01-30T10:08:37;101893.19;;;9.58;100.00
54882;BME280;40775;51.448;4.742;2023-01-30T10:14:37;101892.09;;;9.53;100.00
54882;BME280;40775;51.448;4.742;2023-01-30T10:18:01;101895.38;;;9.47;100.00
54882;BME280;40775;51.448;4.742;2023-01-30T10:23:30;101899.91;;;9.51;100.00
54882;BME280;40775;51.448;4.742;2023-01-30T10:26:17;101912.41;;;9.58;100.00
54882;BME280;40775;51.448;4.742;2023-01-30T10:29:13;101920.25;;;9.36;100.00
54882;BME280;40775;51.448;4.742;2023-01-30T10:31:57;101917.34;;;9.51;100.00
54882;BME280;40775;51.448;4.742;2023-01-30T10:34:33;101932.97;;;9.48;100.00
54882;BME280;40775;51.448;4.742;2023-01-30T10:37:11;101925.94;;;9.68;100.00
54882;BME280;40775;51.448;4.742;2023-01-30T10:39:58;101929.69;;;9.95;100.00
54882;BME280;40775;51.448;4.742;2023-01-30T10:45:27;101924.91;;;9.43;100.00
54882;BME280;40775;51.448;4.742;2023-01-30T10:51:36;101931.16;;;9.47;100.00
54882;BME280;40775;51.448;4.742;2023-01-30T10:59:54;101932.75;;;9.22;100.00
54882;BME280;40775;51.448;4.742;2023-01-30T11:05:24;101944.44;;;9.30;100.00
54882;BME280;40775;51.448;4.742;2023-01-30T11:07:53;101954.13;;;9.52;100.00
54882;BME280;40775;51.448;4.742;2023-01-30T11:10:25;101941.84;;;9.93;100.00
54882;BME280;40775;51.448;4.742;2023-01-30T11:12:59;101926.34;;;9.99;100.00
54882;BME280;40775;51.448;4.742;2023-01-30T11:15:41;101946.25;;;9.73;100.00
54882;BME280;40775;51.448;4.742;2023-01-30T11:18:09;101933.22;;;9.75;100.00
54882;BME280;40775;51.448;4.742;2023-01-30T11:21:07;101938.06;;;9.86;100.00
54882;BME280;40775;51.448;4.742;2023-01-30T11:23:41;101948.63;;;10.10;100.00
54882;BME280;40775;51.448;4.742;2023-01-30T11:26:33;101944.56;;;9.96;100.00
54882;BME280;40775;51.448;4.742;2023-01-30T11:29:29;101940.59;;;10.06;100.00
54882;BME280;40775;51.448;4.742;2023-01-30T11:32:03;101954.19;;;9.75;100.00
54882;BME280;40775;51.448;4.742;2023-01-30T11:34:31;101962.25;;;9.38;100.00
54882;BME280;40775;51.448;4.742;2023-01-30T11:37:31;101952.06;;;9.45;100.00
54882;BME280;40775;51.448;4.742;2023-01-30T11:39:58;101944.22;;;9.66;100.00
54882;BME280;40775;51.448;4.742;2023-01-30T11:42:30;101959.13;;;9.67;100.00
54882;BME280;40775;51.448;4.742;2023-01-30T11:44:59;101945.22;;;9.90;100.00
54882;BME280;40775;51.448;4.742;2023-01-30T11:47:53;101956.03;;;9.98;100.00
54882;BME280;40775;51.448;4.742;2023-01-30T11:50:40;101950.13;;;9.60;100.00
54882;BME280;40775;51.448;4.742;2023-01-30T11:53:36;101970.88;;;9.98;100.00
54882;BME280;40775;51.448;4.742;2023-01-30T11:56:32;101965.28;;;10.11;100.00
54882;BME280;40775;51.448;4.742;2023-01-30T11:59:35;101966.28;;;9.71;100.00
54882;BME280;40775;51.448;4.742;2023-01-30T12:02:25;101955.31;;;10.02;100.00
54882;BME280;40775;51.448;4.742;2023-01-30T12:05:14;101951.94;;;9.84;100.00
54882;BME280;40775;51.448;4.742;2023-01-30T12:07:44;101961.81;;;10.12;100.00
54882;BME280;40775;51.448;4.742;2023-01-30T12:12:53;101952.81;;;9.84;100.00
54882;BME280;40775;51.448;4.742;2023-01-30T12:15:28;101951.44;;;9.93;100.00
54882;BME280;40775;51.448;4.742;2023-01-30T12:21:07;101953.72;;;9.85;100.00
54882;BME280;40775;51.448;4.742;2023-01-30T12:24:04;101954.88;;;10.57;100.00
54882;BME280;40775;51.448;4.742;2023-01-30T12:26:51;101954.66;;;10.51;100.00
54882;BME280;40775;51.448;4.742;2023-01-30T12:29:33;101955.16;;;10.41;100.00
54882;BME280;40775;51.448;4.742;2023-01-30T12:32:20;101962.28;;;10.23;100.00
54882;BME280;40775;51.448;4.742;2023-01-30T12:34:48;101954.94;;;9.93;100.00
54882;BME280;40775;51.448;4.742;2023-01-30T12:37:40;101952.47;;;10.18;100.00
54882;BME280;40775;51.448;4.742;2023-01-30T12:57:14;101961.28;;;10.41;100.00
54882;BME280;40775;51.448;4.742;2023-01-30T13:00:07;101965.16;;;10.08;100.00
54882;BME280;40775;51.448;4.742;2023-01-30T13:02:47;101976.72;;;9.70;100.00
54882;BME280;40775;51.448;4.742;2023-01-30T13:05:40;101984.13;;;9.80;100.00
54882;BME280;40775;51.448;4.742;2023-01-30T13:11:34;101995.75;;;10.07;100.00
54882;BME280;40775;51.448;4.742;2023-01-30T13:17:44;101984.94;;;9.58;100.00
54882;BME280;40775;51.448;4.742;2023-01-30T13:20:44;101981.69;;;9.64;100.00
54882;BME280;40775;51.448;4.742;2023-01-30T13:26:36;101986.97;;;10.28;100.00
54882;BME280;40775;51.448;4.742;2023-01-30T13:29:20;102002.31;;;10.39;100.00
54882;BME280;40775;51.448;4.742;2023-01-30T13:31:54;101997.47;;;9.86;100.00
54882;BME280;40775;51.448;4.742;2023-01-30T13:34:38;101988.34;;;9.97;100.00
54882;BME280;40775;51.448;4.742;2023-01-30T13:37:12;102005.56;;;9.70;100.00
54882;BME280;40775;51.448;4.742;2023-01-30T13:39:57;101999.78;;;9.99;100.00
54882;BME280;40775;51.448;4.742;2023-01-30T13:42:41;102001.81;;;9.85;100.00
54882;BME280;40775;51.448;4.742;2023-01-30T13:45:23;102000.25;;;9.68;100.00
54882;BME280;40775;51.448;4.742;2023-01-30T13:57:09;102024.47;;;9.63;100.00
54882;BME280;40775;51.448;4.742;2023-01-30T14:08:24;102037.50;;;10.22;100.00
54882;BME280;40775;51.448;4.742;2023-01-30T14:10:54;102039.13;;;9.78;100.00
54882;BME280;40775;51.448;4.742;2023-01-30T14:13:23;102054.34;;;10.08;100.00
54882;BME280;40775;51.448;4.742;2023-01-30T14:16:00;102060.28;;;10.23;100.00
54882;BME280;40775;51.448;4.742;2023-01-30T14:18:34;102046.81;;;9.95;100.00
54882;BME280;40775;51.448;4.742;2023-01-30T14:21:22;102051.94;;;9.91;100.00
54882;BME280;40775;51.448;4.742;2023-01-30T14:24:02;102048.44;;;9.91;100.00
54882;BME280;40775;51.448;4.742;2023-01-30T14:49:04;102107.88;;;9.90;100.00
54882;BME280;40775;51.448;4.742;2023-01-30T14:54:21;102122.44;;;10.45;100.00
54882;BME280;40775;51.448;4.742;2023-01-30T14:57:20;102115.66;;;10.10;100.00
54882;BME280;40775;51.448;4.742;2023-01-30T14:59:56;102120.47;;;9.99;100.00
54882;BME280;40775;51.448;4.742;2023-01-30T15:02:48;102128.28;;;9.78;100.00
54882;BME280;40775;51.448;4.742;2023-01-30T15:05:33;102137.75;;;9.36;100.00
54882;BME280;40775;51.448;4.742;2023-01-30T15:08:18;102131.91;;;10.01;100.00
54882;BME280;40775;51.448;4.742;2023-01-30T15:11:13;102144.53;;;10.29;100.00
54882;BME280;40775;51.448;4.742;2023-01-30T15:14:05;102142.59;;;10.25;100.00
54882;BME280;40775;51.448;4.742;2023-01-30T15:25:35;102163.66;;;10.07;100.00
54882;BME280;40775;51.448;4.742;2023-01-30T15:28:34;102154.78;;;9.84;100.00
54882;BME280;40775;51.448;4.742;2023-01-30T15:31:20;102142.94;;;10.13;100.00
54882;BME280;40775;51.448;4.742;2023-01-30T15:33:53;102154.00;;;10.26;100.00